Time;durP1;ratioP1;P1;durP2;ratioP2;P2;SDS_P1;SDS_P2;PMS_P1;PMS_P2;Temp;Humidity;BMP_temperature;BMP_pressure;BME280_temperature;BME280_humidity;BME280_pressure;Samples;Min_cycle;Max_cycle;Signal;HPM_P1;HPM_P2
2023/04/19 00:00:34;;;;;;;23.10;5.80;;;;;;;11.50;100.00;100841.11;106826;1285;58415;-75
2023/04/19 00:03:00;;;;;;;19.00;5.30;;;;;;;11.50;100.00;100836.95;106896;1284;58211;-75
2023/04/19 00:05:27;;;;;;;20.00;5.40;;;;;;;11.48;100.00;100840.38;106881;1285;58449;-75
2023/04/19 00:07:52;;;;;;;22.60;6.70;;;;;;;11.44;100.00;100836.37;106873;1285;58341;-74
2023/04/19 00:10:18;;;;;;;31.90;6.40;;;;;;;11.45;100.00;100834.70;106896;1284;58263;-75
2023/04/19 00:12:43;;;;;;;20.40;6.20;;;;;;;11.43;100.00;100833.77;106802;1284;60279;-75
2023/04/19 00:15:09;;;;;;;21.80;6.00;;;;;;;11.42;100.00;100832.73;106887;1285;58364;-76
2023/04/19 00:17:35;;;;;;;19.30;6.50;;;;;;;11.43;100.00;100832.20;106864;1285;58232;-76
2023/04/19 00:20:00;;;;;;;19.40;7.00;;;;;;;11.42;100.00;100833.60;106857;1285;58681;-76
2023/04/19 00:22:26;;;;;;;26.10;6.80;;;;;;;11.43;100.00;100834.46;106822;1285;58630;-76
2023/04/19 00:24:52;;;;;;;23.30;6.90;;;;;;;11.43;100.00;100836.84;106603;1285;73710;-75
2023/04/19 00:27:18;;;;;;;18.70;6.50;;;;;;;11.44;100.00;100829.88;106864;1284;59397;-75
2023/04/19 00:29:44;;;;;;;24.20;7.30;;;;;;;11.44;100.00;100825.14;106868;1285;58602;-75
2023/04/19 00:32:10;;;;;;;18.80;6.40;;;;;;;11.42;100.00;100818.97;106533;1285;58815;-75
2023/04/19 00:34:35;;;;;;;27.40;6.80;;;;;;;11.40;100.00;100821.39;106524;1285;58753;-75
2023/04/19 00:37:03;;;;;;;23.00;6.30;;;;;;;11.35;100.00;100823.46;106864;1284;58314;-75
2023/04/19 00:39:29;;;;;;;21.70;7.00;;;;;;;11.29;100.00;100824.50;106694;1285;58640;-75
2023/04/19 00:41:56;;;;;;;23.70;6.90;;;;;;;11.25;100.00;100821.61;106832;1284;58376;-75
2023/04/19 00:44:22;;;;;;;20.50;6.90;;;;;;;11.26;100.00;100819.39;106791;1284;58192;-75
2023/04/19 00:46:48;;;;;;;21.60;7.40;;;;;;;11.25;100.00;100817.17;106889;1284;58264;-75
2023/04/19 00:49:14;;;;;;;27.90;7.80;;;;;;;11.22;100.00;100820.13;106843;1285;58167;-75
2023/04/19 00:51:40;;;;;;;27.50;7.40;;;;;;;11.22;100.00;100815.20;106861;1285;58241;-75
2023/04/19 00:54:07;;;;;;;21.60;6.50;;;;;;;11.20;100.00;100808.17;106658;1286;58879;-75
2023/04/19 00:56:34;;;;;;;24.00;6.20;;;;;;;11.17;100.00;100802.06;106840;1285;61421;-75
2023/04/19 00:59:00;;;;;;;16.80;6.20;;;;;;;11.13;100.00;100797.83;106845;1284;73981;-75
2023/04/19 01:01:25;;;;;;;25.30;7.10;;;;;;;11.11;100.00;100792.14;106887;1284;58204;-75
2023/04/19 01:03:51;;;;;;;27.00;6.70;;;;;;;11.11;100.00;100790.58;106855;1285;58449;-75
2023/04/19 01:06:17;;;;;;;19.70;5.80;;;;;;;11.10;100.00;100787.13;106884;1285;58242;-75
2023/04/19 01:08:42;;;;;;;20.20;6.00;;;;;;;11.09;100.00;100784.27;106869;1285;58593;-75
2023/04/19 01:11:08;;;;;;;21.60;5.70;;;;;;;11.05;100.00;100778.40;106928;1284;58416;-75
2023/04/19 01:13:34;;;;;;;22.60;4.90;;;;;;;11.04;100.00;100779.42;106836;1285;72206;-75
2023/04/19 01:16:00;;;;;;;28.40;5.50;;;;;;;11.04;100.00;100784.00;106585;1285;58570;-75
2023/04/19 01:18:31;;;;;;;32.20;6.00;;;;;;;11.01;100.00;100780.86;106488;1285;58433;-75
2023/04/19 01:20:57;;;;;;;28.30;5.20;;;;;;;11.00;100.00;100783.60;106885;1284;74898;-75
2023/04/19 01:23:22;;;;;;;25.10;5.40;;;;;;;10.99;100.00;100780.19;106879;1284;58262;-75
2023/04/19 01:25:49;;;;;;;24.40;5.70;;;;;;;10.99;100.00;100779.38;106510;1285;58276;-74
2023/04/19 01:28:14;;;;;;;29.20;5.20;;;;;;;10.98;100.00;100781.59;106824;1284;58458;-75
2023/04/19 01:30:40;;;;;;;23.50;6.10;;;;;;;10.99;100.00;100780.24;106847;1284;58332;-75
2023/04/19 01:33:05;;;;;;;23.20;5.40;;;;;;;10.99;100.00;100775.17;106943;1284;58274;-75
2023/04/19 01:35:31;;;;;;;23.10;5.30;;;;;;;11.00;100.00;100769.62;106824;1284;72466;-75
2023/04/19 01:37:56;;;;;;;24.40;5.80;;;;;;;10.98;100.00;100770.85;106865;1285;58695;-75
2023/04/19 01:40:24;;;;;;;24.60;5.70;;;;;;;10.96;100.00;100765.66;106854;1284;58254;-75
2023/04/19 01:42:49;;;;;;;29.50;5.70;;;;;;;10.93;100.00;100771.30;106840;1284;58261;-75
2023/04/19 01:45:15;;;;;;;31.10;5.80;;;;;;;10.91;100.00;100771.73;106878;1284;58725;-75
2023/04/19 01:47:41;;;;;;;37.20;6.10;;;;;;;10.91;100.00;100771.98;106827;1285;58293;-75
2023/04/19 01:50:07;;;;;;;31.80;5.30;;;;;;;10.92;100.00;100769.35;106875;1284;58461;-75
2023/04/19 01:52:32;;;;;;;31.00;5.50;;;;;;;10.89;100.00;100768.10;106544;1285;74815;-75
2023/04/19 01:54:58;;;;;;;32.30;5.50;;;;;;;10.89;100.00;100761.35;106833;1284;58221;-75
2023/04/19 01:57:23;;;;;;;26.80;5.40;;;;;;;10.88;100.00;100762.16;106830;1284;58270;-76
2023/04/19 01:59:49;;;;;;;25.80;6.90;;;;;;;10.88;100.00;100763.77;106833;1284;58499;-75
2023/04/19 02:02:14;;;;;;;33.50;6.60;;;;;;;10.88;100.00;100760.75;106927;1284;58952;-75
2023/04/19 02:04:40;;;;;;;31.60;6.20;;;;;;;10.88;100.00;100756.86;106747;1285;75155;-75
2023/04/19 02:07:05;;;;;;;30.20;5.90;;;;;;;10.86;100.00;100752.65;106601;1285;58707;-75
2023/04/19 02:09:35;;;;;;;32.60;6.30;;;;;;;10.86;100.00;100753.98;106827;1285;58347;-75
2023/04/19 02:12:01;;;;;;;27.60;6.20;;;;;;;10.82;100.00;100752.23;106867;1284;59070;-75
2023/04/19 02:14:26;;;;;;;28.50;6.10;;;;;;;10.82;100.00;100755.30;106861;1284;58300;-75
2023/04/19 02:16:51;;;;;;;38.10;7.00;;;;;;;10.81;100.00;100761.34;106859;1284;58189;-75
2023/04/19 02:19:17;;;;;;;30.10;6.40;;;;;;;10.81;100.00;100757.83;106819;1285;58492;-75
2023/04/19 02:21:42;;;;;;;29.70;6.30;;;;;;;10.83;100.00;100757.19;106899;1284;59195;-75
2023/04/19 02:24:08;;;;;;;39.00;6.30;;;;;;;10.83;100.00;100760.17;106810;1285;74697;-75
2023/04/19 02:26:33;;;;;;;29.80;7.00;;;;;;;10.82;100.00;100761.19;106864;1284;58558;-75
2023/04/19 02:28:59;;;;;;;29.40;6.30;;;;;;;10.80;100.00;100758.26;106840;1284;58393;-75
2023/04/19 02:31:24;;;;;;;34.90;6.30;;;;;;;10.79;100.00;100751.60;106620;1285;58352;-76
2023/04/19 02:33:50;;;;;;;29.80;6.60;;;;;;;10.75;100.00;100744.84;106894;1284;58548;-75
2023/04/19 02:36:15;;;;;;;40.90;6.90;;;;;;;10.72;100.00;100742.08;106864;1284;58191;-75
2023/04/19 02:38:41;;;;;;;39.40;7.20;;;;;;;10.70;100.00;100739.57;106839;1284;58562;-75
2023/04/19 02:41:06;;;;;;;41.20;7.60;;;;;;;10.69;100.00;100740.85;106586;1285;58309;-75
2023/04/19 02:43:32;;;;;;;52.00;7.50;;;;;;;10.68;100.00;100741.01;106823;1284;58310;-75
2023/04/19 02:45:57;;;;;;;45.30;7.00;;;;;;;10.69;100.00;100743.45;106918;1284;58470;-75
2023/04/19 02:48:23;;;;;;;37.10;6.70;;;;;;;10.71;100.00;100742.48;106876;1284;58339;-76
2023/04/19 02:50:48;;;;;;;32.80;7.50;;;;;;;10.71;100.00;100742.11;106472;1285;58354;-75
2023/04/19 02:53:14;;;;;;;46.50;7.30;;;;;;;10.72;100.00;100744.48;106875;1284;58728;-75
2023/04/19 02:55:39;;;;;;;46.50;7.70;;;;;;;10.74;100.00;100748.39;106424;1285;58375;-75
2023/04/19 02:58:05;;;;;;;49.80;6.90;;;;;;;10.76;100.00;100750.45;106926;1284;58256;-75
2023/04/19 03:00:30;;;;;;;44.30;7.00;;;;;;;10.76;100.00;100749.70;106836;1284;58200;-76
2023/04/19 03:02:56;;;;;;;51.00;8.20;;;;;;;10.76;100.00;100751.05;106905;1284;58245;-75
2023/04/19 03:05:22;;;;;;;34.60;7.10;;;;;;;10.79;100.00;100750.54;106875;1284;58240;-75
2023/04/19 03:07:48;;;;;;;48.80;6.90;;;;;;;10.80;100.00;100758.10;106614;1284;58369;-75
2023/04/19 03:10:13;;;;;;;51.00;8.40;;;;;;;10.80;100.00;100767.38;106514;1285;58617;-75
2023/04/19 03:12:39;;;;;;;57.40;7.30;;;;;;;10.79;100.00;100768.20;106917;1284;58192;-76
2023/04/19 03:15:05;;;;;;;43.40;7.30;;;;;;;10.79;100.00;100767.92;106915;1284;58724;-75
2023/04/19 03:17:30;;;;;;;49.30;7.50;;;;;;;10.79;100.00;100760.51;106883;1285;58271;-75
2023/04/19 03:19:56;;;;;;;48.70;7.30;;;;;;;10.79;100.00;100760.39;106844;1284;58189;-75
2023/04/19 03:22:22;;;;;;;48.10;7.70;;;;;;;10.79;100.00;100754.30;106862;1284;58331;-76
2023/04/19 03:24:47;;;;;;;39.10;7.00;;;;;;;10.81;100.00;100753.47;106678;1285;58344;-76
2023/04/19 03:27:13;;;;;;;43.10;8.00;;;;;;;10.84;100.00;100760.55;106902;1284;58251;-75
2023/04/19 03:29:38;;;;;;;44.60;6.50;;;;;;;10.87;100.00;100768.30;106844;1284;58307;-76
2023/04/19 03:32:04;;;;;;;50.50;7.00;;;;;;;10.93;100.00;100770.70;106883;1284;58244;-75
2023/04/19 03:34:32;;;;;;;50.10;7.80;;;;;;;10.99;100.00;100776.41;106856;1285;59023;-76
2023/04/19 03:36:57;;;;;;;52.00;7.30;;;;;;;11.03;100.00;100779.14;106838;1284;58410;-76
2023/04/19 03:39:23;;;;;;;42.70;7.70;;;;;;;11.04;100.00;100782.92;106511;1287;58422;-77
2023/04/19 03:41:49;;;;;;;52.10;8.00;;;;;;;11.10;100.00;100785.84;106827;1284;58268;-76
2023/04/19 03:44:15;;;;;;;41.30;7.90;;;;;;;11.13;100.00;100788.92;106847;1284;58469;-76
2023/04/19 03:46:40;;;;;;;51.60;8.10;;;;;;;11.15;100.00;100787.70;106685;1284;325903;-76
2023/04/19 03:49:06;;;;;;;48.60;7.80;;;;;;;11.14;100.00;100781.27;106887;1284;74302;-76
2023/04/19 03:51:31;;;;;;;71.60;8.70;;;;;;;11.15;100.00;100780.04;106870;1284;58303;-76
2023/04/19 03:53:57;;;;;;;54.50;8.00;;;;;;;11.14;100.00;100783.02;106845;1284;58154;-76
2023/04/19 03:56:25;;;;;;;48.60;7.70;;;;;;;11.16;100.00;100788.08;106912;1284;58249;-76
2023/04/19 03:58:51;;;;;;;53.90;7.50;;;;;;;11.20;100.00;100787.41;106893;1284;58272;-75
2023/04/19 04:01:20;;;;;;;43.10;7.60;;;;;;;11.22;100.00;100785.05;106886;1284;58280;-75
2023/04/19 04:03:46;;;;;;;43.00;5.90;;;;;;;11.24;100.00;100774.28;106854;1284;73450;-75
2023/04/19 04:06:11;;;;;;;52.10;7.00;;;;;;;11.25;100.00;100768.94;106834;1284;58238;-75
2023/04/19 04:08:37;;;;;;;49.60;6.90;;;;;;;11.30;100.00;100770.17;106840;1284;59045;-75
2023/04/19 04:11:02;;;;;;;56.40;7.40;;;;;;;11.41;100.00;100770.40;106659;1285;58643;-75
2023/04/19 04:13:28;;;;;;;62.50;7.70;;;;;;;11.45;100.00;100763.02;106875;1284;58210;-75
2023/04/19 04:15:53;;;;;;;49.30;7.80;;;;;;;11.49;100.00;100765.30;106654;1285;62611;-75
2023/04/19 04:18:19;;;;;;;58.20;7.50;;;;;;;11.52;100.00;100764.62;106892;1284;58443;-75
2023/04/19 04:20:44;;;;;;;56.40;7.70;;;;;;;11.62;100.00;100766.41;106658;1285;58299;-75
2023/04/19 04:23:10;;;;;;;54.10;7.20;;;;;;;11.70;100.00;100774.39;106839;1284;58311;-76
2023/04/19 04:25:36;;;;;;;46.80;6.10;;;;;;;11.78;100.00;100770.31;106862;1284;59393;-75
2023/04/19 04:28:05;;;;;;;52.80;7.00;;;;;;;11.85;100.00;100764.80;106889;1284;61159;-75
2023/04/19 04:30:30;;;;;;;66.50;7.30;;;;;;;11.92;100.00;100756.46;106855;1284;74650;-75
2023/04/19 04:32:57;;;;;;;44.90;7.10;;;;;;;12.00;100.00;100749.52;106851;1284;58220;-75
2023/04/19 04:35:23;;;;;;;61.10;7.30;;;;;;;12.13;100.00;100747.73;106817;1284;58541;-75
2023/04/19 04:37:48;;;;;;;51.20;6.60;;;;;;;12.31;100.00;100744.85;106812;1284;58163;-75
2023/04/19 04:40:15;;;;;;;64.60;8.10;;;;;;;12.45;100.00;100745.10;106888;1284;58500;-75
2023/04/19 04:42:41;;;;;;;53.20;7.20;;;;;;;12.73;100.00;100745.23;106874;1284;58284;-76
2023/04/19 04:45:09;;;;;;;57.00;7.30;;;;;;;13.26;100.00;100741.91;106841;1284;58338;-76
2023/04/19 04:47:35;;;;;;;64.10;7.80;;;;;;;14.29;100.00;100735.55;106808;1284;58311;-76
2023/04/19 04:50:01;;;;;;;54.70;7.30;;;;;;;15.14;100.00;100734.56;106720;1285;58248;-76
2023/04/19 04:52:27;;;;;;;64.50;7.70;;;;;;;15.16;100.00;100729.54;106827;1284;58227;-76
2023/04/19 04:54:53;;;;;;;39.60;6.00;;;;;;;15.19;100.00;100724.96;106540;1285;58301;-76
2023/04/19 04:57:18;;;;;;;67.60;7.60;;;;;;;15.03;100.00;100725.67;106863;1284;58390;-76
2023/04/19 04:59:46;;;;;;;50.50;7.10;;;;;;;14.76;100.00;100723.36;106921;1284;58207;-76
2023/04/19 05:02:12;;;;;;;54.20;8.00;;;;;;;14.68;100.00;100728.91;106870;1284;59988;-76
2023/04/19 05:04:37;;;;;;;56.10;6.90;;;;;;;14.55;100.00;100730.41;106763;1285;58653;-76
2023/04/19 05:07:03;;;;;;;66.80;7.60;;;;;;;14.42;100.00;100730.31;106874;1284;58326;-76
2023/04/19 05:09:28;;;;;;;56.70;6.80;;;;;;;14.34;100.00;100727.49;106857;1284;58361;-77
2023/04/19 05:11:54;;;;;;;58.50;7.40;;;;;;;14.32;100.00;100728.60;106946;1284;58120;-76
2023/04/19 05:14:20;;;;;;;62.80;6.80;;;;;;;14.30;100.00;100724.32;106853;1284;73688;-76
2023/04/19 05:16:45;;;;;;;70.60;6.70;;;;;;;14.33;100.00;100716.61;106449;1285;58324;-76
2023/04/19 05:19:10;;;;;;;51.00;7.00;;;;;;;14.39;100.00;100717.71;106789;1284;58293;-75
2023/04/19 05:21:36;;;;;;;62.40;6.20;;;;;;;14.44;100.00;100723.31;106865;1284;58313;-76
2023/04/19 05:24:02;;;;;;;59.30;6.00;;;;;;;14.63;100.00;100718.96;106923;1284;58660;-76
2023/04/19 05:26:27;;;;;;;46.90;6.60;;;;;;;15.01;100.00;100713.52;106828;1284;74280;-76
2023/04/19 05:28:53;;;;;;;44.10;6.70;;;;;;;15.28;100.00;100703.14;106837;1284;58163;-76
2023/04/19 05:31:19;;;;;;;73.30;7.30;;;;;;;15.76;100.00;100705.48;106557;1285;58307;-78
2023/04/19 05:33:45;;;;;;;47.80;5.90;;;;;;;16.46;100.00;100705.23;106841;1284;59265;-77
2023/04/19 05:36:11;;;;;;;55.70;6.60;;;;;;;17.49;98.35;100709.88;106844;1284;58477;-77
2023/04/19 05:38:36;;;;;;;57.20;7.40;;;;;;;18.59;91.71;100701.48;106577;1287;58545;-78
2023/04/19 05:41:03;;;;;;;47.30;6.10;;;;;;;19.44;83.55;100705.15;106838;1284;60402;-78
2023/04/19 05:43:28;;;;;;;61.60;7.60;;;;;;;19.76;79.21;100705.96;106862;1284;58200;-78
2023/04/19 05:46:03;;;;;;;63.40;6.80;;;;;;;19.94;76.65;100702.24;106771;1285;58179;-78
2023/04/19 05:48:29;;;;;;;49.70;6.70;;;;;;;20.24;72.70;100701.86;106772;1285;74129;-78
2023/04/19 05:50:56;;;;;;;47.50;6.00;;;;;;;20.15;69.97;100694.27;106811;1284;58376;-77
2023/04/19 05:53:22;;;;;;;58.90;6.00;;;;;;;20.11;70.23;100694.33;106724;1285;59812;-77
2023/04/19 05:55:49;;;;;;;44.90;6.50;;;;;;;20.10;68.28;100692.10;106670;1284;59445;-77
2023/04/19 05:58:15;;;;;;;46.80;6.10;;;;;;;20.21;67.59;100697.99;106916;1284;58355;-78
2023/04/19 06:00:41;;;;;;;34.20;5.30;;;;;;;20.48;67.03;100689.27;106673;1284;58702;-78
2023/04/19 06:03:07;;;;;;;44.90;6.50;;;;;;;20.92;65.64;100691.45;106845;1284;58479;-77
2023/04/19 06:05:33;;;;;;;43.10;5.50;;;;;;;21.02;63.27;100691.18;106871;1284;58115;-77
2023/04/19 06:07:58;;;;;;;42.30;5.50;;;;;;;20.97;62.48;100691.04;106884;1284;58410;-77
2023/04/19 06:10:24;;;;;;;43.90;5.60;;;;;;;21.11;62.47;100686.77;106797;1285;58215;-78
2023/04/19 06:12:50;;;;;;;44.50;6.20;;;;;;;21.46;62.84;100683.05;106721;1285;58449;-78
2023/04/19 06:15:15;;;;;;;52.10;6.10;;;;;;;22.01;61.34;100688.05;106551;1285;58285;-75
2023/04/19 06:17:41;;;;;;;45.70;5.90;;;;;;;22.22;58.21;100688.11;106859;1284;58305;-76
2023/04/19 06:20:08;;;;;;;40.50;5.90;;;;;;;21.83;57.50;100698.66;106525;1284;58404;-75
2023/04/19 06:22:40;;;;;;;58.30;5.60;;;;;;;20.85;58.69;100702.02;106858;1284;58192;-75
2023/04/19 06:25:05;;;;;;;38.80;5.10;;;;;;;20.08;61.67;100702.79;106768;1285;72616;-74
2023/04/19 06:27:31;;;;;;;32.70;4.70;;;;;;;19.60;62.94;100709.97;106856;1284;58229;-76
2023/04/19 06:29:59;;;;;;;53.40;5.70;;;;;;;19.01;64.05;100714.89;106911;1284;58279;-76
2023/04/19 06:32:25;;;;;;;50.90;7.30;;;;;;;18.45;66.11;100715.02;106905;1284;59530;-77
2023/04/19 06:34:51;;;;;;;38.60;5.70;;;;;;;18.53;68.32;100710.86;106672;1284;58390;-76
2023/04/19 06:37:16;;;;;;;39.90;5.50;;;;;;;19.00;66.59;100708.27;106574;1284;58382;-73
2023/04/19 06:39:42;;;;;;;41.70;5.70;;;;;;;19.44;66.55;100705.92;106915;1284;58276;-74
2023/04/19 06:42:07;;;;;;;55.20;6.30;;;;;;;19.58;65.30;100698.38;106939;1284;58991;-74
2023/04/19 06:44:33;;;;;;;45.60;7.20;;;;;;;19.59;65.25;100691.56;106783;1285;73158;-74
2023/04/19 06:46:58;;;;;;;44.10;5.30;;;;;;;19.42;64.45;100697.77;106578;1285;58589;-74
2023/04/19 06:49:24;;;;;;;45.80;5.70;;;;;;;18.74;65.91;100706.73;106837;1284;58151;-74
2023/04/19 06:51:49;;;;;;;41.90;5.50;;;;;;;18.13;68.46;100715.72;106911;1284;58475;-75
2023/04/19 06:54:15;;;;;;;53.40;5.50;;;;;;;17.68;70.88;100716.48;106949;1284;58307;-75
2023/04/19 06:56:49;;;;;;;48.50;5.90;;;;;;;17.27;73.12;100734.63;106627;1285;73387;-76
2023/04/19 06:59:17;;;;;;;37.80;4.90;;;;;;;16.97;75.21;100730.65;106437;1288;59115;-75
2023/04/19 07:01:43;;;;;;;33.70;6.00;;;;;;;16.86;78.45;100734.94;106514;1285;58976;-76
2023/04/19 07:04:09;;;;;;;48.10;6.10;;;;;;;16.74;80.22;100746.21;106915;1284;58275;-76
2023/04/19 07:06:35;;;;;;;45.80;5.50;;;;;;;16.60;80.54;100745.88;106953;1284;58218;-76
2023/04/19 07:09:02;;;;;;;50.90;4.80;;;;;;;16.45;81.57;100746.60;106871;1284;58325;-76
2023/04/19 07:11:28;;;;;;;49.80;6.20;;;;;;;16.45;83.47;100752.27;106892;1284;58246;-76
2023/04/19 07:13:54;;;;;;;41.30;5.00;;;;;;;16.38;82.99;100759.66;106933;1284;58431;-76
2023/04/19 07:16:19;;;;;;;60.40;6.00;;;;;;;16.25;84.54;100766.91;106929;1284;58239;-76
2023/04/19 07:18:45;;;;;;;43.40;4.90;;;;;;;16.17;85.56;100770.55;106788;1284;58698;-76
2023/04/19 07:21:11;;;;;;;43.30;5.30;;;;;;;16.15;86.72;100768.47;106705;1284;58795;-75
2023/04/19 07:26:58;;;;;;;41.40;4.60;;;;;;;17.14;84.96;100743.37;106843;1284;73627;-76
2023/04/19 07:29:23;;;;;;;36.90;4.80;;;;;;;17.52;80.95;100745.00;106903;1284;58267;-77
2023/04/19 07:31:58;;;;;;;39.90;5.40;;;;;;;17.89;78.73;100749.67;106881;1284;58289;-77
2023/04/19 07:34:28;;;;;;;64.30;5.20;;;;;;;18.33;77.73;100752.09;106785;1285;61846;-79
2023/04/19 07:36:54;;;;;;;35.00;5.30;;;;;;;18.81;74.28;100755.92;106358;1288;61022;-78
2023/04/19 07:39:19;;;;;;;30.80;5.30;;;;;;;19.38;72.74;100745.77;106356;1288;58318;-79
2023/04/19 07:41:45;;;;;;;44.20;5.80;;;;;;;19.91;69.12;100738.98;106541;1288;58286;-78
2023/04/19 07:44:12;;;;;;;52.80;6.60;;;;;;;20.30;68.84;100740.83;106536;1287;58298;-78
2023/04/19 07:46:38;;;;;;;45.00;6.10;;;;;;;20.89;66.22;100740.28;106515;1287;58426;-79
2023/04/19 07:49:03;;;;;;;46.80;5.90;;;;;;;20.87;63.00;100741.73;106552;1287;58324;-78
2023/04/19 07:51:29;;;;;;;40.50;5.90;;;;;;;20.51;62.93;100738.42;106441;1288;58420;-79
2023/04/19 07:53:54;;;;;;;58.60;5.60;;;;;;;20.12;64.06;100735.79;106519;1287;58198;-78
2023/04/19 07:56:21;;;;;;;41.40;6.20;;;;;;;19.64;64.50;100737.19;106561;1287;58678;-79
2023/04/19 07:58:46;;;;;;;61.90;6.10;;;;;;;19.16;66.06;100732.89;106281;1287;58318;-78
2023/04/19 08:01:12;;;;;;;43.70;5.70;;;;;;;18.92;68.45;100733.33;106617;1284;58328;-78
2023/04/19 08:03:38;;;;;;;39.80;5.40;;;;;;;18.76;68.74;100734.45;106917;1284;58589;-78
2023/04/19 08:06:08;;;;;;;48.50;5.50;;;;;;;18.49;68.95;100738.63;106900;1284;58213;-78
2023/04/19 08:08:37;;;;;;;46.20;5.70;;;;;;;18.23;70.38;100728.42;106858;1284;58930;-78
2023/04/19 08:11:03;;;;;;;45.60;6.00;;;;;;;18.64;72.40;100735.63;106872;1284;74483;-78
2023/04/19 08:13:29;;;;;;;39.10;4.60;;;;;;;19.48;68.71;100743.27;106929;1284;58165;-78
2023/04/19 08:15:55;;;;;;;55.30;5.50;;;;;;;19.96;66.79;100740.55;106850;1284;58668;-78
2023/04/19 08:18:21;;;;;;;40.40;5.20;;;;;;;20.62;64.90;100737.04;106883;1284;58126;-79
2023/04/19 08:20:47;;;;;;;49.40;5.90;;;;;;;21.33;62.33;100727.15;106568;1285;58353;-78
2023/04/19 08:23:13;;;;;;;58.50;6.60;;;;;;;22.09;60.28;100714.42;106886;1284;58626;-77
2023/04/19 08:25:38;;;;;;;62.20;6.60;;;;;;;22.37;58.15;100713.20;106575;1287;58327;-78
2023/04/19 08:28:05;;;;;;;45.30;5.30;;;;;;;22.60;57.42;100716.39;106914;1284;61081;-78
2023/04/19 08:30:31;;;;;;;28.00;4.90;;;;;;;22.50;56.38;100716.73;106861;1284;60554;-79
2023/04/19 08:32:57;;;;;;;38.90;5.60;;;;;;;22.15;56.32;100716.21;106911;1284;58263;-78
2023/04/19 08:35:24;;;;;;;47.20;5.70;;;;;;;22.12;56.44;100712.64;106853;1284;58286;-79
2023/04/19 08:37:50;;;;;;;39.90;5.10;;;;;;;22.59;56.66;100706.21;106534;1287;58517;-78
2023/04/19 08:40:15;;;;;;;33.00;4.40;;;;;;;22.69;55.16;100708.71;106316;1287;58730;-78
2023/04/19 08:42:42;;;;;;;57.20;5.60;;;;;;;22.43;54.92;100705.77;106578;1287;58407;-79
2023/04/19 08:45:10;;;;;;;43.40;5.00;;;;;;;22.20;55.46;100705.10;106606;1287;58229;-79
2023/04/19 08:47:36;;;;;;;40.00;6.10;;;;;;;22.57;55.69;100700.42;106175;1291;58450;-79
2023/04/19 08:50:06;;;;;;;36.80;5.90;;;;;;;23.16;55.00;100696.84;105974;1292;58764;-79
2023/04/19 08:52:37;;;;;;;44.60;5.70;;;;;;;23.32;52.95;100702.57;106151;1292;60292;-79
2023/04/19 08:55:05;;;;;;;52.40;6.80;;;;;;;22.07;53.55;100701.36;106183;1292;61131;-79
2023/04/19 08:57:32;;;;;;;51.30;6.00;;;;;;;20.94;56.19;100697.95;106052;1292;74786;-78
2023/04/19 08:59:59;;;;;;;44.90;6.70;;;;;;;20.51;57.71;100695.27;106188;1292;73426;-79
2023/04/19 09:02:25;;;;;;;42.40;5.90;;;;;;;20.32;58.93;100693.84;106172;1292;73580;-79
2023/04/19 09:04:50;;;;;;;43.20;6.80;;;;;;;20.48;59.73;100694.89;106021;1292;58270;-79
2023/04/19 09:07:24;;;;;;;42.20;7.30;;;;;;;21.25;59.26;100692.13;106041;1293;58392;-78
2023/04/19 09:10:06;;;;;;;35.30;6.30;;;;;;;21.96;57.32;100689.77;106373;1288;74008;-78
2023/04/19 09:12:33;;;;;;;36.80;5.80;;;;;;;22.12;55.66;100694.59;106445;1288;74470;-78
2023/04/19 09:15:00;;;;;;;36.20;5.80;;;;;;;22.61;55.78;100688.32;106426;1288;73477;-78
2023/04/19 09:17:25;;;;;;;40.80;6.60;;;;;;;22.80;54.10;100679.29;106424;1288;58235;-79
2023/04/19 09:19:51;;;;;;;42.20;6.10;;;;;;;22.52;53.74;100677.08;106444;1288;58379;-78
2023/04/19 09:22:17;;;;;;;47.10;5.80;;;;;;;22.30;54.86;100685.88;106298;1288;58430;-78
2023/04/19 09:24:43;;;;;;;46.30;6.10;;;;;;;22.28;53.59;100680.16;106498;1285;58269;-78
2023/04/19 09:27:10;;;;;;;40.60;5.80;;;;;;;22.07;54.59;100673.64;106826;1284;58253;-79
2023/04/19 09:29:37;;;;;;;39.60;6.90;;;;;;;22.20;54.82;100670.20;106884;1284;58152;-78
2023/04/19 09:32:02;;;;;;;45.80;7.00;;;;;;;21.69;54.58;100678.30;106942;1284;58540;-78
2023/04/19 09:34:29;;;;;;;41.70;6.60;;;;;;;20.93;55.45;100678.35;106668;1286;58294;-78
2023/04/19 09:36:55;;;;;;;44.00;6.40;;;;;;;20.26;57.73;100677.48;106649;1286;58748;-78
2023/04/19 09:39:30;;;;;;;48.80;6.40;;;;;;;19.65;59.00;100675.80;106455;1286;58277;-78
2023/04/19 09:41:57;;;;;;;46.80;5.80;;;;;;;19.28;60.64;100672.10;106608;1286;61339;-78
2023/04/19 09:44:23;;;;;;;44.80;5.70;;;;;;;19.05;62.41;100673.23;106667;1286;60192;-78
2023/04/19 09:46:50;;;;;;;57.10;7.00;;;;;;;18.98;63.71;100677.36;106458;1286;58295;-77
2023/04/19 09:49:22;;;;;;;49.20;7.00;;;;;;;18.78;63.74;100666.12;106665;1286;74273;-77
2023/04/19 09:51:48;;;;;;;49.50;6.70;;;;;;;18.55;65.19;100665.98;106685;1286;73403;-77
2023/04/19 09:54:16;;;;;;;41.90;6.20;;;;;;;18.52;65.73;100673.31;106640;1287;58266;-78
2023/04/19 09:56:42;;;;;;;52.50;6.40;;;;;;;18.37;65.70;100672.31;106606;1286;61157;-76
2023/04/19 09:59:09;;;;;;;57.50;6.50;;;;;;;18.29;66.43;100680.47;106665;1286;58596;-76
2023/04/19 10:01:46;;;;;;;43.90;5.30;;;;;;;18.21;67.03;100678.70;106625;1286;58440;-76
2023/04/19 10:04:20;;;;;;;45.00;6.20;;;;;;;18.22;68.03;100676.34;106652;1286;73651;-76
2023/04/19 10:06:49;;;;;;;54.20;6.20;;;;;;;18.20;67.84;100679.05;106624;1286;60320;-76
2023/04/19 10:09:15;;;;;;;55.40;6.80;;;;;;;18.18;67.94;100680.95;106730;1286;60077;-76
2023/04/19 10:11:46;;;;;;;39.60;6.10;;;;;;;18.20;68.32;100683.92;106503;1286;58284;-77
2023/04/19 10:14:14;;;;;;;44.40;5.50;;;;;;;18.31;69.10;100684.36;106554;1287;74925;-77
2023/04/19 10:16:40;;;;;;;52.60;5.70;;;;;;;18.35;68.30;100686.67;106572;1286;72517;-77
2023/04/19 10:19:12;;;;;;;41.00;5.10;;;;;;;18.41;68.88;100685.23;106630;1287;58362;-77
2023/04/19 10:21:40;;;;;;;46.40;5.50;;;;;;;18.46;68.03;100686.94;106677;1286;61139;-77
2023/04/19 10:24:06;;;;;;;42.30;5.10;;;;;;;18.44;69.20;100683.39;106666;1286;72810;-76
2023/04/19 10:27:00;;;;;;;52.20;7.00;;;;;;;18.48;68.31;100684.88;106467;1288;59146;-77
2023/04/19 10:29:54;;;;;;;51.20;5.70;;;;;;;18.52;67.84;100682.27;106662;1286;72685;-77
2023/04/19 10:32:20;;;;;;;36.80;4.80;;;;;;;18.53;67.01;100675.38;106658;1286;60039;-77
2023/04/19 10:34:46;;;;;;;33.30;4.60;;;;;;;18.58;67.10;100675.95;106877;1285;58155;-77
2023/04/19 10:37:14;;;;;;;37.80;4.70;;;;;;;18.58;67.14;100681.02;106864;1284;58224;-77
2023/04/19 10:39:42;;;;;;;41.70;5.20;;;;;;;18.58;66.60;100683.42;106898;1284;73507;-78
2023/04/19 10:42:08;;;;;;;36.90;4.70;;;;;;;18.74;67.95;100680.85;106851;1284;73254;-78
2023/04/19 10:44:33;;;;;;;39.80;4.10;;;;;;;18.90;67.19;100689.85;106530;1284;58358;-78
2023/04/19 10:46:59;;;;;;;44.00;5.50;;;;;;;18.80;65.94;100687.64;106825;1284;58175;-78
2023/04/19 10:49:27;;;;;;;39.30;5.50;;;;;;;18.63;66.14;100691.88;106856;1284;58272;-78
2023/04/19 10:51:53;;;;;;;39.00;5.30;;;;;;;18.49;65.94;100689.92;106871;1284;58196;-78
2023/04/19 10:54:30;;;;;;;55.40;5.50;;;;;;;18.23;65.88;100693.61;106838;1285;58257;-79
2023/04/19 10:57:07;;;;;;;37.50;5.30;;;;;;;18.16;67.01;100688.48;106875;1285;59177;-78
2023/04/19 10:59:37;;;;;;;46.50;5.10;;;;;;;18.10;66.12;100692.21;106825;1284;61102;-79
2023/04/19 11:02:31;;;;;;;35.50;5.20;;;;;;;17.99;66.81;100689.62;106868;1284;74478;-79
2023/04/19 11:04:59;;;;;;;32.70;4.50;;;;;;;17.97;67.53;100690.98;106329;1289;73467;-78